sensor_id;sensor_type;location;lat;lon;timestamp;P1;durP1;ratioP1;P2;durP2;ratioP2
41139;SDS011;26881;48.784;9.192;2022-08-21T00:00:32;3.90;;;1.90;;
41139;SDS011;26881;48.784;9.192;2022-08-21T00:05:54;4.53;;;2.25;;
41139;SDS011;26881;48.784;9.192;2022-08-21T00:11:16;3.17;;;2.05;;
41139;SDS011;26881;48.784;9.192;2022-08-21T00:16:39;3.85;;;1.98;;
41139;SDS011;26881;48.784;9.192;2022-08-21T00:22:01;3.10;;;2.25;;
41139;SDS011;26881;48.784;9.192;2022-08-21T00:27:22;2.95;;;1.98;;
41139;SDS011;26881;48.784;9.192;2022-08-21T00:32:44;4.60;;;2.50;;
41139;SDS011;26881;48.784;9.192;2022-08-21T00:38:07;4.93;;;2.80;;
41139;SDS011;26881;48.784;9.192;2022-08-21T00:43:31;4.18;;;2.53;;
41139;SDS011;26881;48.784;9.192;2022-08-21T00:48:56;6.32;;;2.35;;
41139;SDS011;26881;48.784;9.192;2022-08-21T00:54:21;3.03;;;2.15;;
41139;SDS011;26881;48.784;9.192;2022-08-21T00:59:47;7.22;;;2.50;;
41139;SDS011;26881;48.784;9.192;2022-08-21T01:05:12;3.60;;;2.15;;
41139;SDS011;26881;48.784;9.192;2022-08-21T01:10:35;6.88;;;2.63;;
41139;SDS011;26881;48.784;9.192;2022-08-21T01:15:59;4.45;;;2.03;;
41139;SDS011;26881;48.784;9.192;2022-08-21T01:21:25;7.22;;;2.40;;
41139;SDS011;26881;48.784;9.192;2022-08-21T01:26:49;4.20;;;2.22;;
41139;SDS011;26881;48.784;9.192;2022-08-21T01:32:14;3.60;;;2.00;;
41139;SDS011;26881;48.784;9.192;2022-08-21T01:37:37;4.90;;;2.30;;
41139;SDS011;26881;48.784;9.192;2022-08-21T01:42:59;6.18;;;2.30;;
41139;SDS011;26881;48.784;9.192;2022-08-21T01:48:21;5.63;;;2.40;;
41139;SDS011;26881;48.784;9.192;2022-08-21T01:53:43;6.00;;;2.10;;
41139;SDS011;26881;48.784;9.192;2022-08-21T01:59:06;3.60;;;2.17;;
41139;SDS011;26881;48.784;9.192;2022-08-21T02:04:28;4.70;;;2.10;;
41139;SDS011;26881;48.784;9.192;2022-08-21T02:09:50;2.45;;;1.90;;
41139;SDS011;26881;48.784;9.192;2022-08-21T02:15:14;5.88;;;2.40;;
41139;SDS011;26881;48.784;9.192;2022-08-21T02:20:37;5.95;;;2.22;;
41139;SDS011;26881;48.784;9.192;2022-08-21T02:26:02;4.60;;;2.15;;
41139;SDS011;26881;48.784;9.192;2022-08-21T02:31:26;8.10;;;2.63;;
41139;SDS011;26881;48.784;9.192;2022-08-21T02:36:48;4.82;;;2.08;;
41139;SDS011;26881;48.784;9.192;2022-08-21T02:42:20;7.30;;;2.28;;
41139;SDS011;26881;48.784;9.192;2022-08-21T02:47:53;3.72;;;2.20;;
41139;SDS011;26881;48.784;9.192;2022-08-21T02:53:16;8.00;;;2.20;;
41139;SDS011;26881;48.784;9.192;2022-08-21T02:58:42;4.85;;;2.30;;
41139;SDS011;26881;48.784;9.192;2022-08-21T03:04:09;4.28;;;2.25;;
41139;SDS011;26881;48.784;9.192;2022-08-21T03:09:31;2.58;;;2.22;;
41139;SDS011;26881;48.784;9.192;2022-08-21T03:14:53;5.05;;;2.17;;
41139;SDS011;26881;48.784;9.192;2022-08-21T03:20:16;6.25;;;2.28;;
41139;SDS011;26881;48.784;9.192;2022-08-21T03:25:39;4.65;;;2.53;;
41139;SDS011;26881;48.784;9.192;2022-08-21T03:31:01;4.38;;;2.25;;
41139;SDS011;26881;48.784;9.192;2022-08-21T03:36:23;5.47;;;2.35;;
41139;SDS011;26881;48.784;9.192;2022-08-21T03:41:45;3.78;;;2.25;;
41139;SDS011;26881;48.784;9.192;2022-08-21T03:47:08;4.63;;;2.47;;
41139;SDS011;26881;48.784;9.192;2022-08-21T03:52:31;5.68;;;2.63;;
41139;SDS011;26881;48.784;9.192;2022-08-21T03:57:52;5.03;;;2.60;;
41139;SDS011;26881;48.784;9.192;2022-08-21T04:03:15;5.22;;;2.42;;
41139;SDS011;26881;48.784;9.192;2022-08-21T04:08:37;4.70;;;2.30;;
41139;SDS011;26881;48.784;9.192;2022-08-21T04:13:59;6.43;;;2.45;;
41139;SDS011;26881;48.784;9.192;2022-08-21T04:19:21;4.45;;;2.65;;
41139;SDS011;26881;48.784;9.192;2022-08-21T04:24:42;9.45;;;2.83;;
41139;SDS011;26881;48.784;9.192;2022-08-21T04:30:04;5.70;;;2.88;;
41139;SDS011;26881;48.784;9.192;2022-08-21T04:35:27;4.78;;;2.40;;
41139;SDS011;26881;48.784;9.192;2022-08-21T04:40:49;5.78;;;2.75;;
41139;SDS011;26881;48.784;9.192;2022-08-21T04:46:12;9.50;;;2.70;;
41139;SDS011;26881;48.784;9.192;2022-08-21T04:51:34;4.55;;;2.65;;
41139;SDS011;26881;48.784;9.192;2022-08-21T04:57:00;3.10;;;2.22;;
41139;SDS011;26881;48.784;9.192;2022-08-21T05:02:26;3.33;;;2.10;;
41139;SDS011;26881;48.784;9.192;2022-08-21T05:07:48;3.92;;;2.20;;
41139;SDS011;26881;48.784;9.192;2022-08-21T05:13:11;5.25;;;2.60;;
41139;SDS011;26881;48.784;9.192;2022-08-21T05:18:34;4.05;;;2.78;;
41139;SDS011;26881;48.784;9.192;2022-08-21T05:23:56;4.07;;;2.33;;
41139;SDS011;26881;48.784;9.192;2022-08-21T05:29:18;5.80;;;2.60;;
41139;SDS011;26881;48.784;9.192;2022-08-21T05:34:40;6.63;;;2.67;;
41139;SDS011;26881;48.784;9.192;2022-08-21T05:40:02;3.60;;;2.40;;
41139;SDS011;26881;48.784;9.192;2022-08-21T05:45:43;5.07;;;2.25;;
41139;SDS011;26881;48.784;9.192;2022-08-21T05:51:06;4.43;;;2.42;;
41139;SDS011;26881;48.784;9.192;2022-08-21T05:56:33;4.07;;;2.45;;
41139;SDS011;26881;48.784;9.192;2022-08-21T06:01:55;7.53;;;3.17;;
41139;SDS011;26881;48.784;9.192;2022-08-21T06:07:17;4.93;;;2.53;;
41139;SDS011;26881;48.784;9.192;2022-08-21T06:12:39;7.75;;;2.78;;
41139;SDS011;26881;48.784;9.192;2022-08-21T06:18:03;6.40;;;2.67;;
41139;SDS011;26881;48.784;9.192;2022-08-21T06:23:24;7.22;;;2.58;;
41139;SDS011;26881;48.784;9.192;2022-08-21T06:28:53;5.18;;;2.17;;
41139;SDS011;26881;48.784;9.192;2022-08-21T06:34:15;5.20;;;2.90;;
41139;SDS011;26881;48.784;9.192;2022-08-21T06:39:37;5.72;;;2.63;;
41139;SDS011;26881;48.784;9.192;2022-08-21T06:45:05;8.13;;;3.13;;
41139;SDS011;26881;48.784;9.192;2022-08-21T06:50:28;6.70;;;3.03;;
41139;SDS011;26881;48.784;9.192;2022-08-21T06:55:51;6.65;;;2.80;;
41139;SDS011;26881;48.784;9.192;2022-08-21T07:01:14;5.43;;;2.95;;
41139;SDS011;26881;48.784;9.192;2022-08-21T07:06:35;5.15;;;2.53;;
41139;SDS011;26881;48.784;9.192;2022-08-21T07:11:58;7.05;;;2.50;;
41139;SDS011;26881;48.784;9.192;2022-08-21T07:17:20;4.28;;;2.88;;
41139;SDS011;26881;48.784;9.192;2022-08-21T07:22:42;3.55;;;2.70;;
41139;SDS011;26881;48.784;9.192;2022-08-21T07:28:04;4.13;;;2.80;;
41139;SDS011;26881;48.784;9.192;2022-08-21T07:33:26;5.18;;;2.85;;
41139;SDS011;26881;48.784;9.192;2022-08-21T07:38:50;4.53;;;2.95;;
41139;SDS011;26881;48.784;9.192;2022-08-21T07:44:13;9.10;;;3.50;;
41139;SDS011;26881;48.784;9.192;2022-08-21T07:49:35;12.48;;;3.50;;
41139;SDS011;26881;48.784;9.192;2022-08-21T07:54:57;5.85;;;2.95;;
41139;SDS011;26881;48.784;9.192;2022-08-21T08:00:24;7.63;;;3.40;;
41139;SDS011;26881;48.784;9.192;2022-08-21T08:05:47;8.40;;;3.30;;
41139;SDS011;26881;48.784;9.192;2022-08-21T08:11:09;7.30;;;2.97;;
41139;SDS011;26881;48.784;9.192;2022-08-21T08:16:32;5.20;;;3.22;;
41139;SDS011;26881;48.784;9.192;2022-08-21T08:21:54;5.65;;;2.90;;
41139;SDS011;26881;48.784;9.192;2022-08-21T08:27:16;6.05;;;3.30;;
41139;SDS011;26881;48.784;9.192;2022-08-21T08:32:38;6.50;;;3.53;;
41139;SDS011;26881;48.784;9.192;2022-08-21T08:38:01;7.22;;;3.70;;
41139;SDS011;26881;48.784;9.192;2022-08-21T08:43:23;4.78;;;3.08;;
41139;SDS011;26881;48.784;9.192;2022-08-21T08:48:50;4.63;;;3.40;;
41139;SDS011;26881;48.784;9.192;2022-08-21T08:54:28;8.13;;;3.40;;
41139;SDS011;26881;48.784;9.192;2022-08-21T08:59:55;6.38;;;3.78;;
41139;SDS011;26881;48.784;9.192;2022-08-21T09:05:25;6.85;;;3.17;;
41139;SDS011;26881;48.784;9.192;2022-08-21T09:10:54;11.13;;;3.58;;
41139;SDS011;26881;48.784;9.192;2022-08-21T09:22:08;9.80;;;4.30;;
41139;SDS011;26881;48.784;9.192;2022-08-21T09:27:38;11.40;;;4.75;;
41139;SDS011;26881;48.784;9.192;2022-08-21T09:33:01;7.53;;;3.92;;
41139;SDS011;26881;48.784;9.192;2022-08-21T09:38:24;12.10;;;4.35;;
41139;SDS011;26881;48.784;9.192;2022-08-21T09:43:52;12.80;;;3.72;;
41139;SDS011;26881;48.784;9.192;2022-08-21T09:49:26;7.70;;;3.75;;
41139;SDS011;26881;48.784;9.192;2022-08-21T09:54:50;8.35;;;3.95;;
41139;SDS011;26881;48.784;9.192;2022-08-21T10:00:30;8.40;;;3.85;;
41139;SDS011;26881;48.784;9.192;2022-08-21T10:05:57;8.60;;;3.60;;
41139;SDS011;26881;48.784;9.192;2022-08-21T10:11:30;6.03;;;3.15;;
41139;SDS011;26881;48.784;9.192;2022-08-21T10:22:44;10.75;;;3.83;;
41139;SDS011;26881;48.784;9.192;2022-08-21T10:34:18;9.23;;;3.70;;
41139;SDS011;26881;48.784;9.192;2022-08-21T10:39:55;5.00;;;3.28;;
41139;SDS011;26881;48.784;9.192;2022-08-21T10:51:43;10.25;;;3.42;;
41139;SDS011;26881;48.784;9.192;2022-08-21T10:57:27;10.93;;;3.40;;
41139;SDS011;26881;48.784;9.192;2022-08-21T11:03:01;7.90;;;3.22;;
41139;SDS011;26881;48.784;9.192;2022-08-21T11:08:31;5.30;;;3.15;;
41139;SDS011;26881;48.784;9.192;2022-08-21T11:14:03;7.70;;;3.22;;
41139;SDS011;26881;48.784;9.192;2022-08-21T11:20:10;5.07;;;3.00;;
41139;SDS011;26881;48.784;9.192;2022-08-21T11:25:29;9.85;;;3.67;;
41139;SDS011;26881;48.784;9.192;2022-08-21T11:36:38;6.18;;;3.67;;
41139;SDS011;26881;48.784;9.192;2022-08-21T11:53:38;9.50;;;3.30;;
41139;SDS011;26881;48.784;9.192;2022-08-21T11:59:19;4.53;;;2.95;;
41139;SDS011;26881;48.784;9.192;2022-08-21T12:04:49;7.03;;;3.30;;
41139;SDS011;26881;48.784;9.192;2022-08-21T12:10:18;6.63;;;2.85;;
41139;SDS011;26881;48.784;9.192;2022-08-21T12:15:43;5.35;;;3.13;;
41139;SDS011;26881;48.784;9.192;2022-08-21T12:26:54;9.65;;;3.13;;
41139;SDS011;26881;48.784;9.192;2022-08-21T12:32:25;8.70;;;2.85;;
41139;SDS011;26881;48.784;9.192;2022-08-21T12:43:56;11.60;;;3.10;;
41139;SDS011;26881;48.784;9.192;2022-08-21T12:49:31;7.88;;;3.17;;
41139;SDS011;26881;48.784;9.192;2022-08-21T12:54:56;5.65;;;2.97;;
41139;SDS011;26881;48.784;9.192;2022-08-21T13:00:20;5.15;;;2.95;;
41139;SDS011;26881;48.784;9.192;2022-08-21T13:05:44;3.70;;;2.63;;
41139;SDS011;26881;48.784;9.192;2022-08-21T13:11:06;8.57;;;2.60;;
41139;SDS011;26881;48.784;9.192;2022-08-21T13:16:35;7.15;;;2.85;;
41139;SDS011;26881;48.784;9.192;2022-08-21T13:21:57;10.25;;;3.20;;
41139;SDS011;26881;48.784;9.192;2022-08-21T13:27:26;13.90;;;3.25;;
41139;SDS011;26881;48.784;9.192;2022-08-21T13:32:51;6.95;;;3.10;;
41139;SDS011;26881;48.784;9.192;2022-08-21T13:38:17;3.88;;;2.60;;
41139;SDS011;26881;48.784;9.192;2022-08-21T13:43:58;5.85;;;3.08;;
41139;SDS011;26881;48.784;9.192;2022-08-21T13:49:23;6.25;;;2.78;;
41139;SDS011;26881;48.784;9.192;2022-08-21T13:54:57;4.88;;;3.10;;
41139;SDS011;26881;48.784;9.192;2022-08-21T14:00:27;6.05;;;2.90;;
41139;SDS011;26881;48.784;9.192;2022-08-21T14:05:51;4.95;;;2.85;;
41139;SDS011;26881;48.784;9.192;2022-08-21T14:11:13;9.23;;;2.97;;
41139;SDS011;26881;48.784;9.192;2022-08-21T14:16:43;8.45;;;3.00;;
41139;SDS011;26881;48.784;9.192;2022-08-21T14:22:36;5.03;;;2.70;;
41139;SDS011;26881;48.784;9.192;2022-08-21T14:33:36;7.18;;;2.92;;
41139;SDS011;26881;48.784;9.192;2022-08-21T14:38:58;5.40;;;2.80;;
41139;SDS011;26881;48.784;9.192;2022-08-21T14:44:22;6.68;;;3.13;;
41139;SDS011;26881;48.784;9.192;2022-08-21T14:49:44;6.45;;;3.00;;
41139;SDS011;26881;48.784;9.192;2022-08-21T14:55:07;7.03;;;2.90;;
41139;SDS011;26881;48.784;9.192;2022-08-21T15:00:32;5.13;;;2.85;;
41139;SDS011;26881;48.784;9.192;2022-08-21T15:05:57;6.40;;;2.45;;
41139;SDS011;26881;48.784;9.192;2022-08-21T15:11:20;7.05;;;2.80;;
41139;SDS011;26881;48.784;9.192;2022-08-21T15:17:03;5.88;;;3.15;;
41139;SDS011;26881;48.784;9.192;2022-08-21T15:22:26;7.68;;;2.95;;
41139;SDS011;26881;48.784;9.192;2022-08-21T15:27:49;4.35;;;2.60;;
41139;SDS011;26881;48.784;9.192;2022-08-21T15:33:11;6.68;;;3.20;;
41139;SDS011;26881;48.784;9.192;2022-08-21T15:38:33;6.13;;;3.08;;
41139;SDS011;26881;48.784;9.192;2022-08-21T15:43:54;5.43;;;2.53;;
41139;SDS011;26881;48.784;9.192;2022-08-21T15:49:16;6.10;;;2.53;;
41139;SDS011;26881;48.784;9.192;2022-08-21T15:54:38;5.15;;;2.70;;
41139;SDS011;26881;48.784;9.192;2022-08-21T16:00:00;5.50;;;2.55;;
41139;SDS011;26881;48.784;9.192;2022-08-21T16:05:33;3.72;;;2.70;;
41139;SDS011;26881;48.784;9.192;2022-08-21T16:10:55;5.28;;;3.30;;
41139;SDS011;26881;48.784;9.192;2022-08-21T16:16:22;3.78;;;2.40;;
41139;SDS011;26881;48.784;9.192;2022-08-21T16:21:45;6.43;;;2.50;;
41139;SDS011;26881;48.784;9.192;2022-08-21T16:27:07;4.38;;;2.38;;
41139;SDS011;26881;48.784;9.192;2022-08-21T16:32:29;4.25;;;2.63;;
41139;SDS011;26881;48.784;9.192;2022-08-21T16:37:51;5.07;;;2.72;;
41139;SDS011;26881;48.784;9.192;2022-08-21T16:43:14;4.35;;;2.47;;
41139;SDS011;26881;48.784;9.192;2022-08-21T16:48:37;4.90;;;2.90;;
41139;SDS011;26881;48.784;9.192;2022-08-21T16:53:59;4.15;;;2.55;;
41139;SDS011;26881;48.784;9.192;2022-08-21T16:59:21;4.80;;;3.22;;
41139;SDS011;26881;48.784;9.192;2022-08-21T17:04:43;3.53;;;2.55;;
41139;SDS011;26881;48.784;9.192;2022-08-21T17:10:06;5.18;;;3.50;;
41139;SDS011;26881;48.784;9.192;2022-08-21T17:15:33;8.50;;;2.72;;
41139;SDS011;26881;48.784;9.192;2022-08-21T17:20:56;6.20;;;3.17;;
41139;SDS011;26881;48.784;9.192;2022-08-21T17:26:18;5.25;;;3.00;;
41139;SDS011;26881;48.784;9.192;2022-08-21T17:31:40;5.43;;;2.78;;
41139;SDS011;26881;48.784;9.192;2022-08-21T17:37:03;3.30;;;2.72;;
41139;SDS011;26881;48.784;9.192;2022-08-21T17:42:26;8.05;;;3.58;;
41139;SDS011;26881;48.784;9.192;2022-08-21T17:47:48;5.57;;;3.88;;
41139;SDS011;26881;48.784;9.192;2022-08-21T17:53:10;7.32;;;3.55;;
41139;SDS011;26881;48.784;9.192;2022-08-21T17:58:32;11.52;;;3.63;;
41139;SDS011;26881;48.784;9.192;2022-08-21T18:03:55;5.25;;;3.08;;
41139;SDS011;26881;48.784;9.192;2022-08-21T18:09:17;7.38;;;3.78;;
41139;SDS011;26881;48.784;9.192;2022-08-21T18:14:39;5.28;;;2.60;;
41139;SDS011;26881;48.784;9.192;2022-08-21T18:20:02;5.43;;;2.65;;
41139;SDS011;26881;48.784;9.192;2022-08-21T18:25:27;4.72;;;3.00;;
41139;SDS011;26881;48.784;9.192;2022-08-21T18:30:49;4.82;;;2.70;;
41139;SDS011;26881;48.784;9.192;2022-08-21T18:36:14;6.30;;;3.63;;
41139;SDS011;26881;48.784;9.192;2022-08-21T18:41:36;6.45;;;2.90;;
41139;SDS011;26881;48.784;9.192;2022-08-21T18:47:05;6.90;;;3.08;;
41139;SDS011;26881;48.784;9.192;2022-08-21T18:52:34;6.53;;;2.90;;
41139;SDS011;26881;48.784;9.192;2022-08-21T18:57:56;4.97;;;3.08;;
41139;SDS011;26881;48.784;9.192;2022-08-21T19:03:20;4.05;;;2.58;;
41139;SDS011;26881;48.784;9.192;2022-08-21T19:09:04;6.60;;;3.10;;
41139;SDS011;26881;48.784;9.192;2022-08-21T19:14:27;8.70;;;3.92;;
41139;SDS011;26881;48.784;9.192;2022-08-21T19:19:49;5.35;;;2.95;;
41139;SDS011;26881;48.784;9.192;2022-08-21T19:25:12;3.95;;;2.65;;
41139;SDS011;26881;48.784;9.192;2022-08-21T19:30:38;5.13;;;2.63;;
41139;SDS011;26881;48.784;9.192;2022-08-21T19:36:02;5.13;;;2.83;;
41139;SDS011;26881;48.784;9.192;2022-08-21T19:41:26;4.80;;;2.85;;
41139;SDS011;26881;48.784;9.192;2022-08-21T19:46:51;5.43;;;3.20;;
41139;SDS011;26881;48.784;9.192;2022-08-21T19:52:17;5.63;;;3.55;;
41139;SDS011;26881;48.784;9.192;2022-08-21T19:57:39;3.92;;;3.05;;
41139;SDS011;26881;48.784;9.192;2022-08-21T20:03:02;8.90;;;3.33;;
41139;SDS011;26881;48.784;9.192;2022-08-21T20:08:27;7.72;;;3.78;;
41139;SDS011;26881;48.784;9.192;2022-08-21T20:13:51;5.20;;;3.42;;
41139;SDS011;26881;48.784;9.192;2022-08-21T20:19:13;6.22;;;3.65;;
41139;SDS011;26881;48.784;9.192;2022-08-21T20:24:39;6.45;;;3.95;;
41139;SDS011;26881;48.784;9.192;2022-08-21T20:30:03;8.65;;;4.05;;
41139;SDS011;26881;48.784;9.192;2022-08-21T20:35:27;4.85;;;3.38;;
41139;SDS011;26881;48.784;9.192;2022-08-21T20:40:50;4.35;;;3.45;;
41139;SDS011;26881;48.784;9.192;2022-08-21T20:46:13;4.40;;;3.30;;
41139;SDS011;26881;48.784;9.192;2022-08-21T20:51:41;8.00;;;3.78;;
41139;SDS011;26881;48.784;9.192;2022-08-21T21:08:39;7.93;;;4.10;;
41139;SDS011;26881;48.784;9.192;2022-08-21T21:14:11;7.68;;;4.30;;
41139;SDS011;26881;48.784;9.192;2022-08-21T21:25:10;6.47;;;3.45;;
41139;SDS011;26881;48.784;9.192;2022-08-21T21:31:01;6.05;;;3.22;;
41139;SDS011;26881;48.784;9.192;2022-08-21T21:36:36;8.75;;;4.07;;
41139;SDS011;26881;48.784;9.192;2022-08-21T21:47:41;7.45;;;4.50;;
41139;SDS011;26881;48.784;9.192;2022-08-21T21:59:12;7.75;;;4.22;;
41139;SDS011;26881;48.784;9.192;2022-08-21T22:10:24;10.07;;;4.72;;
41139;SDS011;26881;48.784;9.192;2022-08-21T22:16:03;7.88;;;4.38;;
41139;SDS011;26881;48.784;9.192;2022-08-21T22:21:30;8.82;;;4.70;;
41139;SDS011;26881;48.784;9.192;2022-08-21T22:26:57;10.20;;;4.63;;
41139;SDS011;26881;48.784;9.192;2022-08-21T22:32:24;7.43;;;3.85;;
41139;SDS011;26881;48.784;9.192;2022-08-21T22:37:52;5.85;;;4.22;;
41139;SDS011;26881;48.784;9.192;2022-08-21T22:43:19;7.43;;;3.53;;
41139;SDS011;26881;48.784;9.192;2022-08-21T22:48:50;6.85;;;3.47;;
41139;SDS011;26881;48.784;9.192;2022-08-21T22:54:21;5.10;;;3.20;;
41139;SDS011;26881;48.784;9.192;2022-08-21T23:10:58;5.38;;;3.50;;
41139;SDS011;26881;48.784;9.192;2022-08-21T23:17:08;8.02;;;3.17;;
41139;SDS011;26881;48.784;9.192;2022-08-21T23:33:58;9.48;;;3.53;;
41139;SDS011;26881;48.784;9.192;2022-08-21T23:45:25;7.95;;;3.85;;
41139;SDS011;26881;48.784;9.192;2022-08-21T23:50:59;9.88;;;3.78;;
41139;SDS011;26881;48.784;9.192;2022-08-21T23:56:41;9.18;;;4.00;;
